Terminal Aerodrome Forecast
Issued by NWS El Paso, TX

Home | Current Version | Previous Version | Text Only | Print | Product List | Glossary On
Versions: 1 2 3 4 5 6 7 8 9 10 11 12
117
FTUS44 KEPZ 270140 AAA
TAFELP
TAF AMD
KELP 270140Z 2702/2724 24008KT P6SM SCT180 BKN250
     FM270300 26012G22KT P6SM SCT180 BKN250
     FM270900 27008KT P6SM SCT130 SCT250
     FM271800 24013G23KT P6SM FEW100 SCT250=

USA.gov is the U.S. government's official web portal to all federal, state and local government web resources and services.